sensor_id;sensor_type;location;lat;lon;timestamp;pressure;altitude;pressure_sealevel;temperature;humidity
68366;BME280;55283;51.466;5.478;2023-02-27T00:01:33;102669.19;;;19.70;38.31
68366;BME280;55283;51.466;5.478;2023-02-27T00:03:59;102661.56;;;19.59;38.56
68366;BME280;55283;51.466;5.478;2023-02-27T00:06:25;102671.19;;;19.69;38.52
68366;BME280;55283;51.466;5.478;2023-02-27T00:08:51;102665.22;;;19.67;38.41
68366;BME280;55283;51.466;5.478;2023-02-27T00:11:16;102675.19;;;19.68;38.50
68366;BME280;55283;51.466;5.478;2023-02-27T00:13:42;102670.38;;;19.65;38.33
68366;BME280;55283;51.466;5.478;2023-02-27T00:16:07;102668.75;;;19.60;38.50
68366;BME280;55283;51.466;5.478;2023-02-27T00:18:33;102667.19;;;19.63;38.50
68366;BME280;55283;51.466;5.478;2023-02-27T00:20:58;102667.97;;;19.63;38.57
68366;BME280;55283;51.466;5.478;2023-02-27T00:23:26;102666.38;;;19.62;38.47
68366;BME280;55283;51.466;5.478;2023-02-27T00:25:53;102663.97;;;19.61;38.48
68366;BME280;55283;51.466;5.478;2023-02-27T00:28:20;102664.78;;;19.61;38.48
68366;BME280;55283;51.466;5.478;2023-02-27T00:30:46;102658.78;;;19.59;38.61
68366;BME280;55283;51.466;5.478;2023-02-27T00:33:13;102659.56;;;19.63;38.50
68366;BME280;55283;51.466;5.478;2023-02-27T00:35:39;102655.97;;;19.63;38.40
68366;BME280;55283;51.466;5.478;2023-02-27T00:38:04;102654.78;;;19.60;38.46
68366;BME280;55283;51.466;5.478;2023-02-27T00:40:33;102649.97;;;19.57;38.43
68366;BME280;55283;51.466;5.478;2023-02-27T00:43:03;102652.75;;;19.61;38.52
68366;BME280;55283;51.466;5.478;2023-02-27T00:45:28;102657.97;;;19.59;38.38
68366;BME280;55283;51.466;5.478;2023-02-27T00:47:54;102656.78;;;19.60;38.49
68366;BME280;55283;51.466;5.478;2023-02-27T00:50:19;102657.19;;;19.58;38.50
68366;BME280;55283;51.466;5.478;2023-02-27T00:52:45;102659.56;;;19.56;38.56
68366;BME280;55283;51.466;5.478;2023-02-27T00:55:10;102662.34;;;19.56;38.54
68366;BME280;55283;51.466;5.478;2023-02-27T00:57:36;102653.50;;;19.54;38.52
68366;BME280;55283;51.466;5.478;2023-02-27T01:00:05;102658.34;;;19.57;38.65
68366;BME280;55283;51.466;5.478;2023-02-27T01:02:31;102657.56;;;19.57;38.56
68366;BME280;55283;51.466;5.478;2023-02-27T01:04:57;102645.56;;;19.60;38.58
68366;BME280;55283;51.466;5.478;2023-02-27T01:07:22;102643.19;;;19.58;38.45
68366;BME280;55283;51.466;5.478;2023-02-27T01:09:47;102653.13;;;19.56;38.37
68366;BME280;55283;51.466;5.478;2023-02-27T01:12:13;102651.16;;;19.56;38.40
68366;BME280;55283;51.466;5.478;2023-02-27T01:14:38;102647.91;;;19.54;38.35
68366;BME280;55283;51.466;5.478;2023-02-27T01:17:04;102647.91;;;19.54;38.53
68366;BME280;55283;51.466;5.478;2023-02-27T01:19:29;102651.13;;;19.53;38.53
68366;BME280;55283;51.466;5.478;2023-02-27T01:21:55;102650.72;;;19.54;38.38
68366;BME280;55283;51.466;5.478;2023-02-27T01:24:20;102643.13;;;19.55;38.42
68366;BME280;55283;51.466;5.478;2023-02-27T01:26:46;102650.72;;;19.54;38.33
68366;BME280;55283;51.466;5.478;2023-02-27T01:29:16;102646.75;;;19.55;38.55
68366;BME280;55283;51.466;5.478;2023-02-27T01:31:44;102647.53;;;19.52;38.55
68366;BME280;55283;51.466;5.478;2023-02-27T01:34:09;102655.09;;;19.52;38.47
68366;BME280;55283;51.466;5.478;2023-02-27T01:36:35;102649.91;;;19.50;38.49
68366;BME280;55283;51.466;5.478;2023-02-27T01:39:00;102637.50;;;19.51;38.60
68366;BME280;55283;51.466;5.478;2023-02-27T01:41:26;102647.91;;;19.51;38.43
68366;BME280;55283;51.466;5.478;2023-02-27T01:46:18;102645.47;;;19.49;38.66
68366;BME280;55283;51.466;5.478;2023-02-27T01:48:43;102646.31;;;19.50;38.64
68366;BME280;55283;51.466;5.478;2023-02-27T01:51:14;102642.31;;;19.51;38.49
68366;BME280;55283;51.466;5.478;2023-02-27T01:53:42;102639.50;;;19.51;38.79
68366;BME280;55283;51.466;5.478;2023-02-27T01:56:18;102633.50;;;19.49;38.30
68366;BME280;55283;51.466;5.478;2023-02-27T01:58:45;102640.72;;;19.50;38.55
68366;BME280;55283;51.466;5.478;2023-02-27T02:01:15;102647.09;;;19.50;38.30
68366;BME280;55283;51.466;5.478;2023-02-27T02:06:08;102643.91;;;19.52;38.56
68366;BME280;55283;51.466;5.478;2023-02-27T02:08:38;102646.31;;;19.50;38.31
68366;BME280;55283;51.466;5.478;2023-02-27T02:11:06;102649.88;;;19.47;38.44
68366;BME280;55283;51.466;5.478;2023-02-27T02:13:33;102642.69;;;19.49;38.58
68366;BME280;55283;51.466;5.478;2023-02-27T02:16:18;102637.50;;;19.48;38.56
68366;BME280;55283;51.466;5.478;2023-02-27T02:39:26;102646.66;;;19.41;38.66
68366;BME280;55283;51.466;5.478;2023-02-27T02:42:08;102653.84;;;19.42;38.59
68366;BME280;55283;51.466;5.478;2023-02-27T02:44:40;102653.03;;;19.38;38.75
68366;BME280;55283;51.466;5.478;2023-02-27T02:52:44;102654.63;;;19.39;38.66
68366;BME280;55283;51.466;5.478;2023-02-27T03:00:21;102648.25;;;19.38;38.68
68366;BME280;55283;51.466;5.478;2023-02-27T03:02:59;102648.63;;;19.37;38.67
68366;BME280;55283;51.466;5.478;2023-02-27T03:05:33;102649.47;;;19.41;38.50
68366;BME280;55283;51.466;5.478;2023-02-27T03:08:06;102658.63;;;19.38;38.43
68366;BME280;55283;51.466;5.478;2023-02-27T03:11:04;102650.25;;;19.38;38.45
68366;BME280;55283;51.466;5.478;2023-02-27T03:13:36;102665.03;;;19.38;38.40
68366;BME280;55283;51.466;5.478;2023-02-27T03:18:42;102657.81;;;19.37;38.56
68366;BME280;55283;51.466;5.478;2023-02-27T03:21:13;102655.00;;;19.34;38.58
68366;BME280;55283;51.466;5.478;2023-02-27T03:23:42;102657.78;;;19.34;38.54
68366;BME280;55283;51.466;5.478;2023-02-27T03:26:08;102657.00;;;19.37;38.60
68366;BME280;55283;51.466;5.478;2023-02-27T03:28:38;102662.22;;;19.38;38.53
68366;BME280;55283;51.466;5.478;2023-02-27T03:31:18;102665.41;;;19.40;38.35
68366;BME280;55283;51.466;5.478;2023-02-27T03:33:51;102674.22;;;19.39;38.52
68366;BME280;55283;51.466;5.478;2023-02-27T03:41:26;102672.63;;;19.38;38.61
68366;BME280;55283;51.466;5.478;2023-02-27T03:45:17;102676.59;;;19.37;38.61
68366;BME280;55283;51.466;5.478;2023-02-27T03:47:10;102678.59;;;19.36;38.41
68366;BME280;55283;51.466;5.478;2023-02-27T03:49:36;102678.16;;;19.34;38.53
68366;BME280;55283;51.466;5.478;2023-02-27T03:52:01;102681.72;;;19.31;38.66
68366;BME280;55283;51.466;5.478;2023-02-27T03:54:33;102677.00;;;19.35;38.58
68366;BME280;55283;51.466;5.478;2023-02-27T03:57:03;102681.34;;;19.33;38.63
68366;BME280;55283;51.466;5.478;2023-02-27T03:59:30;102678.59;;;19.36;38.39
68366;BME280;55283;51.466;5.478;2023-02-27T04:01:57;102680.59;;;19.36;38.44
68366;BME280;55283;51.466;5.478;2023-02-27T04:04:26;102690.16;;;19.35;38.50
68366;BME280;55283;51.466;5.478;2023-02-27T04:07:04;102681.34;;;19.33;38.54
68366;BME280;55283;51.466;5.478;2023-02-27T04:18:22;102690.91;;;19.28;38.68
68366;BME280;55283;51.466;5.478;2023-02-27T04:23:39;102690.53;;;19.30;38.65
68366;BME280;55283;51.466;5.478;2023-02-27T04:29:29;102684.09;;;19.26;38.67
68366;BME280;55283;51.466;5.478;2023-02-27T04:32:05;102693.31;;;19.26;38.65
68366;BME280;55283;51.466;5.478;2023-02-27T04:34:42;102687.28;;;19.24;38.58
68366;BME280;55283;51.466;5.478;2023-02-27T04:37:31;102686.88;;;19.26;38.58
68366;BME280;55283;51.466;5.478;2023-02-27T04:40:08;102689.31;;;19.27;38.64
68366;BME280;55283;51.466;5.478;2023-02-27T04:42:44;102689.28;;;19.23;38.49
68366;BME280;55283;51.466;5.478;2023-02-27T04:45:13;102695.28;;;19.26;38.63
68366;BME280;55283;51.466;5.478;2023-02-27T04:47:51;102703.66;;;19.26;38.78
68366;BME280;55283;51.466;5.478;2023-02-27T04:50:25;102703.66;;;19.26;38.55
68366;BME280;55283;51.466;5.478;2023-02-27T04:53:01;102707.28;;;19.26;38.44
68366;BME280;55283;51.466;5.478;2023-02-27T04:55:33;102706.09;;;19.27;38.70
68366;BME280;55283;51.466;5.478;2023-02-27T04:58:08;102706.09;;;19.27;38.53
68366;BME280;55283;51.466;5.478;2023-02-27T05:00:36;102702.50;;;19.27;38.61
68366;BME280;55283;51.466;5.478;2023-02-27T05:03:08;102703.28;;;19.27;38.60
68366;BME280;55283;51.466;5.478;2023-02-27T05:05:37;102707.69;;;19.28;38.64
68366;BME280;55283;51.466;5.478;2023-02-27T05:08:17;102710.09;;;19.26;38.61
68366;BME280;55283;51.466;5.478;2023-02-27T05:10:51;102712.06;;;19.26;38.72
68366;BME280;55283;51.466;5.478;2023-02-27T05:13:33;102718.50;;;19.30;38.47
68366;BME280;55283;51.466;5.478;2023-02-27T05:16:23;102704.09;;;19.28;38.57
68366;BME280;55283;51.466;5.478;2023-02-27T05:18:54;102707.66;;;19.25;38.47
68366;BME280;55283;51.466;5.478;2023-02-27T05:29:54;102721.66;;;19.25;38.53
68366;BME280;55283;51.466;5.478;2023-02-27T05:38:05;102720.03;;;19.23;38.42
68366;BME280;55283;51.466;5.478;2023-02-27T05:40:34;102721.63;;;19.21;38.82
68366;BME280;55283;51.466;5.478;2023-02-27T05:43:21;102720.81;;;19.20;38.74
68366;BME280;55283;51.466;5.478;2023-02-27T05:45:51;102725.59;;;19.20;38.75
68366;BME280;55283;51.466;5.478;2023-02-27T05:48:25;102724.78;;;19.19;38.72
68366;BME280;55283;51.466;5.478;2023-02-27T05:50:53;102728.00;;;19.21;38.54
68366;BME280;55283;51.466;5.478;2023-02-27T05:53:26;102735.97;;;19.19;38.71
68366;BME280;55283;51.466;5.478;2023-02-27T05:55:54;102730.00;;;19.21;38.63
68366;BME280;55283;51.466;5.478;2023-02-27T05:58:27;102740.41;;;19.20;38.56
68366;BME280;55283;51.466;5.478;2023-02-27T06:01:00;102741.19;;;19.21;38.58
68366;BME280;55283;51.466;5.478;2023-02-27T06:03:26;102740.41;;;19.20;38.67
68366;BME280;55283;51.466;5.478;2023-02-27T06:05:54;102739.53;;;19.16;38.76
68366;BME280;55283;51.466;5.478;2023-02-27T06:08:21;102754.75;;;19.19;38.64
68366;BME280;55283;51.466;5.478;2023-02-27T06:10:47;102750.75;;;19.20;38.51
68366;BME280;55283;51.466;5.478;2023-02-27T06:13:18;102744.78;;;19.21;38.54
68366;BME280;55283;51.466;5.478;2023-02-27T06:15:44;102755.97;;;19.21;38.49
68366;BME280;55283;51.466;5.478;2023-02-27T06:18:13;102756.34;;;19.20;38.72
68366;BME280;55283;51.466;5.478;2023-02-27T06:20:43;102758.75;;;19.21;38.67
68366;BME280;55283;51.466;5.478;2023-02-27T06:23:10;102767.53;;;19.20;38.55
68366;BME280;55283;51.466;5.478;2023-02-27T06:25:38;102764.34;;;19.21;38.71
68366;BME280;55283;51.466;5.478;2023-02-27T06:28:04;102767.16;;;19.21;38.55
68366;BME280;55283;51.466;5.478;2023-02-27T06:30:30;102772.75;;;19.21;38.61
68366;BME280;55283;51.466;5.478;2023-02-27T06:32:56;102768.75;;;19.22;38.77
68366;BME280;55283;51.466;5.478;2023-02-27T06:35:21;102766.03;;;19.30;38.93
68366;BME280;55283;51.466;5.478;2023-02-27T06:37:47;102767.59;;;19.27;38.88
68366;BME280;55283;51.466;5.478;2023-02-27T06:40:13;102773.94;;;19.20;39.24
68366;BME280;55283;51.466;5.478;2023-02-27T06:42:40;102784.63;;;19.11;39.73
68366;BME280;55283;51.466;5.478;2023-02-27T06:45:06;102783.78;;;19.07;39.91
68366;BME280;55283;51.466;5.478;2023-02-27T06:47:32;102792.59;;;19.09;40.04
68366;BME280;55283;51.466;5.478;2023-02-27T06:50:01;102792.97;;;19.04;40.40
68366;BME280;55283;51.466;5.478;2023-02-27T06:52:27;102797.78;;;19.07;40.11
68366;BME280;55283;51.466;5.478;2023-02-27T06:54:53;102806.59;;;19.09;40.21
68366;BME280;55283;51.466;5.478;2023-02-27T06:57:21;102813.03;;;19.17;40.56
68366;BME280;55283;51.466;5.478;2023-02-27T06:59:46;102811.56;;;19.30;39.99
68366;BME280;55283;51.466;5.478;2023-02-27T07:02:13;102822.41;;;19.35;40.95
68366;BME280;55283;51.466;5.478;2023-02-27T07:04:38;102820.88;;;19.45;39.97
68366;BME280;55283;51.466;5.478;2023-02-27T07:07:06;102832.84;;;19.42;40.71
68366;BME280;55283;51.466;5.478;2023-02-27T07:09:32;102830.03;;;19.42;41.21
68366;BME280;55283;51.466;5.478;2023-02-27T07:11:58;102831.69;;;19.47;41.28
68366;BME280;55283;51.466;5.478;2023-02-27T07:14:23;102830.03;;;19.38;40.02
68366;BME280;55283;51.466;5.478;2023-02-27T07:16:50;102835.91;;;19.26;38.83
68366;BME280;55283;51.466;5.478;2023-02-27T07:19:22;102831.03;;;19.19;38.08
68366;BME280;55283;51.466;5.478;2023-02-27T07:21:48;102834.22;;;19.18;38.67
68366;BME280;55283;51.466;5.478;2023-02-27T07:24:13;102843.13;;;18.90;32.44
68366;BME280;55283;51.466;5.478;2023-02-27T07:26:47;102845.47;;;18.54;29.13
68366;BME280;55283;51.466;5.478;2023-02-27T07:29:13;102842.63;;;18.20;29.55
68366;BME280;55283;51.466;5.478;2023-02-27T07:31:39;102850.69;;;17.99;28.61
68366;BME280;55283;51.466;5.478;2023-02-27T07:34:05;102852.78;;;18.05;30.46
68366;BME280;55283;51.466;5.478;2023-02-27T07:36:31;102845.34;;;18.17;33.13
68366;BME280;55283;51.466;5.478;2023-02-27T07:38:56;102853.81;;;18.24;34.77
68366;BME280;55283;51.466;5.478;2023-02-27T07:41:25;102856.69;;;18.27;35.49
68366;BME280;55283;51.466;5.478;2023-02-27T07:43:50;102852.91;;;18.43;35.64
68366;BME280;55283;51.466;5.478;2023-02-27T07:46:18;102853.81;;;18.50;36.61
68366;BME280;55283;51.466;5.478;2023-02-27T07:48:44;102847.81;;;18.52;36.22
68366;BME280;55283;51.466;5.478;2023-02-27T07:51:10;102838.66;;;18.51;37.16
68366;BME280;55283;51.466;5.478;2023-02-27T07:53:37;102847.50;;;18.57;36.69
68366;BME280;55283;51.466;5.478;2023-02-27T07:56:03;102848.81;;;18.67;36.66
68366;BME280;55283;51.466;5.478;2023-02-27T07:58:31;102847.72;;;18.75;37.01
68366;BME280;55283;51.466;5.478;2023-02-27T08:00:56;102847.00;;;18.82;37.14
68366;BME280;55283;51.466;5.478;2023-02-27T08:03:21;102855.41;;;18.85;36.91
68366;BME280;55283;51.466;5.478;2023-02-27T08:05:47;102845.53;;;18.91;36.88
68366;BME280;55283;51.466;5.478;2023-02-27T08:08:12;102842.84;;;19.02;37.16
68366;BME280;55283;51.466;5.478;2023-02-27T08:10:46;102848.13;;;19.11;37.35
68366;BME280;55283;51.466;5.478;2023-02-27T08:13:11;102847.31;;;19.10;37.44
68366;BME280;55283;51.466;5.478;2023-02-27T08:15:38;102847.81;;;19.19;37.79
68366;BME280;55283;51.466;5.478;2023-02-27T08:18:07;102845.03;;;19.23;36.92
68366;BME280;55283;51.466;5.478;2023-02-27T08:20:33;102850.28;;;19.28;37.52
68366;BME280;55283;51.466;5.478;2023-02-27T08:22:58;102853.94;;;19.32;37.64
68366;BME280;55283;51.466;5.478;2023-02-27T08:25:31;102852.75;;;19.37;37.52
68366;BME280;55283;51.466;5.478;2023-02-27T08:28:00;102859.22;;;19.41;37.57
68366;BME280;55283;51.466;5.478;2023-02-27T08:30:25;102866.06;;;19.47;37.58
68366;BME280;55283;51.466;5.478;2023-02-27T08:32:53;102860.13;;;19.52;37.66
68366;BME280;55283;51.466;5.478;2023-02-27T08:35:20;102853.38;;;19.57;37.58
68366;BME280;55283;51.466;5.478;2023-02-27T08:37:45;102863.81;;;19.63;37.46
68366;BME280;55283;51.466;5.478;2023-02-27T08:40:11;102870.25;;;19.67;37.62
68366;BME280;55283;51.466;5.478;2023-02-27T08:42:37;102867.47;;;19.71;37.77
68366;BME280;55283;51.466;5.478;2023-02-27T08:45:03;102863.53;;;19.76;37.56
68366;BME280;55283;51.466;5.478;2023-02-27T08:47:31;102872.38;;;19.81;37.52
68366;BME280;55283;51.466;5.478;2023-02-27T08:49:57;102870.38;;;19.82;36.82
68366;BME280;55283;51.466;5.478;2023-02-27T08:52:22;102875.53;;;19.80;36.69
68366;BME280;55283;51.466;5.478;2023-02-27T08:54:55;102878.00;;;19.85;37.39
68366;BME280;55283;51.466;5.478;2023-02-27T08:57:20;102872.84;;;19.90;37.44
68366;BME280;55283;51.466;5.478;2023-02-27T08:59:46;102876.09;;;19.96;37.57
68366;BME280;55283;51.466;5.478;2023-02-27T09:02:14;102868.91;;;19.99;37.66
68366;BME280;55283;51.466;5.478;2023-02-27T09:04:40;102869.72;;;20.03;37.69
68366;BME280;55283;51.466;5.478;2023-02-27T09:07:05;102874.56;;;20.09;37.68
68366;BME280;55283;51.466;5.478;2023-02-27T09:09:30;102875.41;;;20.13;37.73
68366;BME280;55283;51.466;5.478;2023-02-27T09:11:56;102881.78;;;20.14;37.59
68366;BME280;55283;51.466;5.478;2023-02-27T09:14:21;102881.44;;;20.19;37.70
68366;BME280;55283;51.466;5.478;2023-02-27T09:16:48;102888.66;;;20.24;38.15
68366;BME280;55283;51.466;5.478;2023-02-27T09:19:13;102872.63;;;20.24;38.97
68366;BME280;55283;51.466;5.478;2023-02-27T09:21:39;102882.69;;;20.29;38.68
68366;BME280;55283;51.466;5.478;2023-02-27T09:24:05;102884.28;;;20.30;38.97
68366;BME280;55283;51.466;5.478;2023-02-27T09:26:30;102894.31;;;20.31;39.49
68366;BME280;55283;51.466;5.478;2023-02-27T09:28:56;102888.28;;;20.29;39.92
68366;BME280;55283;51.466;5.478;2023-02-27T09:31:21;102889.50;;;20.31;40.40
68366;BME280;55283;51.466;5.478;2023-02-27T09:33:47;102896.38;;;20.38;40.58
68366;BME280;55283;51.466;5.478;2023-02-27T09:36:12;102887.56;;;20.39;40.57
68366;BME280;55283;51.466;5.478;2023-02-27T09:38:38;102889.19;;;20.40;40.67
68366;BME280;55283;51.466;5.478;2023-02-27T09:41:05;102885.97;;;20.42;40.76
68366;BME280;55283;51.466;5.478;2023-02-27T09:43:38;102888.81;;;20.45;41.03
68366;BME280;55283;51.466;5.478;2023-02-27T09:46:13;102892.00;;;20.47;41.30
68366;BME280;55283;51.466;5.478;2023-02-27T09:48:49;102886.03;;;20.56;40.60
68366;BME280;55283;51.466;5.478;2023-02-27T09:51:16;102884.03;;;20.56;40.54
68366;BME280;55283;51.466;5.478;2023-02-27T09:53:45;102886.47;;;20.58;40.28
68366;BME280;55283;51.466;5.478;2023-02-27T09:56:32;102884.09;;;20.64;40.65
68366;BME280;55283;51.466;5.478;2023-02-27T10:01:54;102882.50;;;20.70;40.06
68366;BME280;55283;51.466;5.478;2023-02-27T10:04:36;102886.09;;;20.67;38.95
68366;BME280;55283;51.466;5.478;2023-02-27T10:13:03;102893.31;;;20.68;39.49
68366;BME280;55283;51.466;5.478;2023-02-27T10:15:35;102890.50;;;20.68;39.50
68366;BME280;55283;51.466;5.478;2023-02-27T10:18:13;102890.50;;;20.71;39.67
68366;BME280;55283;51.466;5.478;2023-02-27T10:21:00;102890.13;;;20.73;39.62
68366;BME280;55283;51.466;5.478;2023-02-27T10:23:40;102887.75;;;20.75;39.57
68366;BME280;55283;51.466;5.478;2023-02-27T10:26:19;102885.75;;;20.79;39.35
68366;BME280;55283;51.466;5.478;2023-02-27T10:28:44;102883.34;;;20.81;39.56
68366;BME280;55283;51.466;5.478;2023-02-27T10:31:23;102889.38;;;20.83;39.30
68366;BME280;55283;51.466;5.478;2023-02-27T10:33:49;102881.75;;;20.84;39.42
68366;BME280;55283;51.466;5.478;2023-02-27T10:36:19;102879.34;;;20.86;39.36
68366;BME280;55283;51.466;5.478;2023-02-27T10:38:57;102885.00;;;20.89;39.87
68366;BME280;55283;51.466;5.478;2023-02-27T10:41:25;102878.97;;;20.94;39.65
68366;BME280;55283;51.466;5.478;2023-02-27T10:43:55;102871.78;;;21.00;39.47
68366;BME280;55283;51.466;5.478;2023-02-27T10:46:25;102875.41;;;21.05;39.53
68366;BME280;55283;51.466;5.478;2023-02-27T10:48:56;102878.63;;;21.07;39.23
68366;BME280;55283;51.466;5.478;2023-02-27T10:51:30;102867.00;;;21.08;39.43
68366;BME280;55283;51.466;5.478;2023-02-27T10:56:47;102857.81;;;21.15;39.24
68366;BME280;55283;51.466;5.478;2023-02-27T11:02:00;102856.25;;;21.21;39.29
68366;BME280;55283;51.466;5.478;2023-02-27T11:04:39;102849.84;;;21.24;39.03
68366;BME280;55283;51.466;5.478;2023-02-27T11:07:11;102845.03;;;21.24;39.40
68366;BME280;55283;51.466;5.478;2023-02-27T11:09:58;102839.81;;;21.34;39.03
68366;BME280;55283;51.466;5.478;2023-02-27T11:12:29;102834.63;;;21.36;39.12
68366;BME280;55283;51.466;5.478;2023-02-27T11:15:00;102833.41;;;21.33;39.27
68366;BME280;55283;51.466;5.478;2023-02-27T11:17:31;102824.22;;;21.33;40.18
68366;BME280;55283;51.466;5.478;2023-02-27T11:19:59;102834.22;;;21.37;40.15
68366;BME280;55283;51.466;5.478;2023-02-27T11:22:28;102823.41;;;21.39;40.08
68366;BME280;55283;51.466;5.478;2023-02-27T11:25:21;102824.19;;;21.43;40.10
68366;BME280;55283;51.466;5.478;2023-02-27T11:27:47;102820.59;;;21.43;40.05
68366;BME280;55283;51.466;5.478;2023-02-27T11:32:47;102821.38;;;21.40;40.23
68366;BME280;55283;51.466;5.478;2023-02-27T11:35:34;102808.56;;;21.39;39.95
68366;BME280;55283;51.466;5.478;2023-02-27T11:38:03;102804.56;;;21.36;40.79
68366;BME280;55283;51.466;5.478;2023-02-27T11:40:46;102805.75;;;21.28;41.54
68366;BME280;55283;51.466;5.478;2023-02-27T11:45:49;102811.78;;;21.34;40.95
68366;BME280;55283;51.466;5.478;2023-02-27T11:57:02;102812.19;;;21.25;40.65
68366;BME280;55283;51.466;5.478;2023-02-27T11:59:43;102786.88;;;21.14;40.51
68366;BME280;55283;51.466;5.478;2023-02-27T12:05:02;102801.34;;;21.23;40.54
68366;BME280;55283;51.466;5.478;2023-02-27T12:08:10;102798.94;;;21.25;40.32
68366;BME280;55283;51.466;5.478;2023-02-27T12:10:46;102797.34;;;21.21;40.43
68366;BME280;55283;51.466;5.478;2023-02-27T12:13:19;102794.13;;;21.19;40.20
68366;BME280;55283;51.466;5.478;2023-02-27T12:18:43;102798.13;;;21.18;40.21
68366;BME280;55283;51.466;5.478;2023-02-27T12:21:18;102798.09;;;21.14;40.08
68366;BME280;55283;51.466;5.478;2023-02-27T12:29:31;102793.28;;;21.08;40.03
68366;BME280;55283;51.466;5.478;2023-02-27T12:37:22;102794.47;;;21.03;40.16
68366;BME280;55283;51.466;5.478;2023-02-27T12:39:53;102795.69;;;21.02;40.13
68366;BME280;55283;51.466;5.478;2023-02-27T12:50:19;102787.66;;;20.93;40.27
68366;BME280;55283;51.466;5.478;2023-02-27T12:53:15;102780.84;;;20.87;40.17
68366;BME280;55283;51.466;5.478;2023-02-27T12:56:02;102782.44;;;20.81;40.00
68366;BME280;55283;51.466;5.478;2023-02-27T12:58:43;102781.25;;;20.82;40.36
68366;BME280;55283;51.466;5.478;2023-02-27T13:01:45;102777.22;;;20.79;40.44
68366;BME280;55283;51.466;5.478;2023-02-27T13:07:24;102779.22;;;20.72;40.73
68366;BME280;55283;51.466;5.478;2023-02-27T13:09:49;102774.00;;;20.70;40.75
68366;BME280;55283;51.466;5.478;2023-02-27T13:14:57;102769.19;;;20.67;41.02
68366;BME280;55283;51.466;5.478;2023-02-27T13:17:32;102776.44;;;20.72;41.04
68366;BME280;55283;51.466;5.478;2023-02-27T13:25:33;102769.19;;;20.71;40.61
68366;BME280;55283;51.466;5.478;2023-02-27T13:28:04;102774.41;;;20.69;40.74
68366;BME280;55283;51.466;5.478;2023-02-27T13:30:43;102765.59;;;20.63;40.42
68366;BME280;55283;51.466;5.478;2023-02-27T13:36:09;102775.59;;;20.64;40.53
68366;BME280;55283;51.466;5.478;2023-02-27T13:38:48;102766.41;;;20.64;40.33
68366;BME280;55283;51.466;5.478;2023-02-27T13:43:50;102765.56;;;20.56;39.91
68366;BME280;55283;51.466;5.478;2023-02-27T13:46:29;102757.94;;;20.49;39.84
68366;BME280;55283;51.466;5.478;2023-02-27T13:59:17;102757.91;;;20.39;38.74
68366;BME280;55283;51.466;5.478;2023-02-27T14:04:50;102752.25;;;20.28;38.74
68366;BME280;55283;51.466;5.478;2023-02-27T14:07:27;102756.22;;;20.27;37.93
68366;BME280;55283;51.466;5.478;2023-02-27T14:10:04;102756.25;;;20.30;37.61
68366;BME280;55283;51.466;5.478;2023-02-27T14:12:40;102755.84;;;20.32;38.10
68366;BME280;55283;51.466;5.478;2023-02-27T14:15:46;102757.44;;;20.33;37.93
68366;BME280;55283;51.466;5.478;2023-02-27T14:18:02;102753.84;;;20.32;37.74
68366;BME280;55283;51.466;5.478;2023-02-27T14:28:27;102761.84;;;20.30;36.92
68366;BME280;55283;51.466;5.478;2023-02-27T14:31:00;102762.66;;;20.31;36.59
68366;BME280;55283;51.466;5.478;2023-02-27T14:33:31;102750.69;;;20.34;37.01
68366;BME280;55283;51.466;5.478;2023-02-27T14:36:01;102751.88;;;20.37;36.86
68366;BME280;55283;51.466;5.478;2023-02-27T14:38:27;102742.31;;;20.38;37.28
68366;BME280;55283;51.466;5.478;2023-02-27T14:41:12;102746.66;;;20.35;36.89
68366;BME280;55283;51.466;5.478;2023-02-27T14:43:44;102739.84;;;20.32;36.92
68366;BME280;55283;51.466;5.478;2023-02-27T14:46:32;102745.44;;;20.29;36.65
68366;BME280;55283;51.466;5.478;2023-02-27T14:49:02;102749.06;;;20.33;36.50
68366;BME280;55283;51.466;5.478;2023-02-27T14:51:30;102739.47;;;20.34;37.03
68366;BME280;55283;51.466;5.478;2023-02-27T14:54:18;102735.47;;;20.35;36.74
68366;BME280;55283;51.466;5.478;2023-02-27T14:56:59;102731.03;;;20.30;36.29
68366;BME280;55283;51.466;5.478;2023-02-27T14:59:30;102730.63;;;20.25;36.68
68366;BME280;55283;51.466;5.478;2023-02-27T15:01:59;102728.59;;;20.22;36.66
68366;BME280;55283;51.466;5.478;2023-02-27T15:04:33;102726.63;;;20.22;37.08
68366;BME280;55283;51.466;5.478;2023-02-27T15:06:59;102724.63;;;20.23;36.49
68366;BME280;55283;51.466;5.478;2023-02-27T15:09:41;102726.22;;;20.20;36.42
68366;BME280;55283;51.466;5.478;2023-02-27T15:12:16;102721.03;;;20.26;36.60
68366;BME280;55283;51.466;5.478;2023-02-27T15:14:46;102723.03;;;20.29;36.58
68366;BME280;55283;51.466;5.478;2023-02-27T15:17:19;102715.84;;;20.28;36.63
68366;BME280;55283;51.466;5.478;2023-02-27T15:19:51;102724.63;;;20.30;36.72
68366;BME280;55283;51.466;5.478;2023-02-27T15:22:25;102728.66;;;20.29;36.47
68366;BME280;55283;51.466;5.478;2023-02-27T15:24:58;102725.00;;;20.25;36.37
68366;BME280;55283;51.466;5.478;2023-02-27T15:27:25;102731.41;;;20.22;36.68
68366;BME280;55283;51.466;5.478;2023-02-27T15:29:58;102726.63;;;20.29;36.63
68366;BME280;55283;51.466;5.478;2023-02-27T15:34:55;102725.84;;;20.36;36.74
68366;BME280;55283;51.466;5.478;2023-02-27T15:37:25;102716.31;;;20.37;36.26
68366;BME280;55283;51.466;5.478;2023-02-27T15:39:52;102721.03;;;20.26;36.68
68366;BME280;55283;51.466;5.478;2023-02-27T15:42:31;102730.63;;;20.25;37.06
68366;BME280;55283;51.466;5.478;2023-02-27T15:45:02;102733.03;;;20.30;36.26
68366;BME280;55283;51.466;5.478;2023-02-27T15:47:32;102739.00;;;20.25;36.84
68366;BME280;55283;51.466;5.478;2023-02-27T15:50:05;102725.44;;;20.27;37.03
68366;BME280;55283;51.466;5.478;2023-02-27T15:52:40;102731.81;;;20.24;36.63
68366;BME280;55283;51.466;5.478;2023-02-27T15:55:22;102732.63;;;20.24;36.65